Time;durP1;ratioP1;P1;durP2;ratioP2;P2;SDS_P1;SDS_P2;PMS_P1;PMS_P2;Temp;Humidity;BMP_temperature;BMP_pressure;BME280_temperature;BME280_humidity;BME280_pressure;Samples;Min_cycle;Max_cycle;Signal;HPM_P1;HPM_P2
2022/06/17 05:00:32;;;;;;;3.80;2.90;;;20.90;97.20;;;;;;1708325;29;20554;-69
2022/06/17 05:01:25;;;;;;;3.30;2.72;;;20.90;97.20;;;;;;1708157;29;20587;-69
2022/06/17 05:02:20;;;;;;;3.88;3.50;;;20.90;97.20;;;;;;1708288;29;20678;-69
2022/06/17 05:03:11;;;;;;;3.28;2.53;;;20.90;97.20;;;;;;1708166;29;20214;-70
2022/06/17 05:04:04;;;;;;;3.47;3.00;;;20.90;97.20;;;;;;1713559;28;20301;-70
2022/06/17 05:04:57;;;;;;;3.00;2.80;;;20.90;97.20;;;;;;1714819;28;20941;-70
2022/06/17 05:05:49;;;;;;;4.13;3.10;;;20.90;97.20;;;;;;1714785;28;20202;-70
2022/06/17 05:06:40;;;;;;;3.10;2.80;;;20.90;97.20;;;;;;1714508;28;20205;-70
2022/06/17 05:07:38;;;;;;;3.30;3.00;;;20.90;97.20;;;;;;1714737;28;20206;-69
2022/06/17 05:08:34;;;;;;;2.95;2.35;;;21.00;97.20;;;;;;1714788;28;20286;-70
2022/06/17 05:09:29;;;;;;;3.90;2.50;;;21.00;97.20;;;;;;1714741;28;20202;-70
2022/06/17 05:10:25;;;;;;;5.30;2.65;;;21.00;97.20;;;;;;1714681;28;20226;-70
2022/06/17 05:11:23;;;;;;;2.97;2.67;;;21.00;97.20;;;;;;1714827;28;20373;-70
2022/06/17 05:12:20;;;;;;;3.80;2.80;;;21.00;97.20;;;;;;1714857;28;20293;-70
2022/06/17 05:13:16;;;;;;;5.00;2.83;;;21.00;97.20;;;;;;1714773;28;20256;-70
2022/06/17 05:14:15;;;;;;;3.55;2.58;;;21.00;97.20;;;;;;1714914;28;20201;-70
2022/06/17 05:15:10;;;;;;;3.25;2.80;;;21.00;97.20;;;;;;1713936;28;20737;-70
2022/06/17 05:16:05;;;;;;;3.13;2.83;;;21.00;97.20;;;;;;1714686;28;20579;-69
2022/06/17 05:16:57;;;;;;;4.55;2.92;;;21.00;97.20;;;;;;1714495;28;20308;-70
2022/06/17 05:17:50;;;;;;;3.08;2.72;;;21.10;97.20;;;;;;1709302;28;20265;-70
2022/06/17 05:18:40;;;;;;;3.00;2.78;;;21.10;97.20;;;;;;1708103;28;20293;-70
2022/06/17 05:19:32;;;;;;;2.93;2.53;;;21.10;97.20;;;;;;1708142;29;20321;-69
2022/06/17 05:20:24;;;;;;;2.72;2.50;;;21.10;97.20;;;;;;1707979;29;20218;-70
2022/06/17 05:21:21;;;;;;;3.22;2.92;;;21.10;97.20;;;;;;1708063;29;20569;-70
2022/06/17 05:22:15;;;;;;;3.00;2.80;;;21.10;97.20;;;;;;1708113;29;20202;-69
2022/06/17 05:23:08;;;;;;;5.50;3.50;;;21.10;97.20;;;;;;1708029;28;20194;-70
2022/06/17 05:24:00;;;;;;;3.05;2.55;;;21.10;97.20;;;;;;1707920;29;20226;-70
2022/06/17 05:24:52;;;;;;;3.30;2.80;;;21.20;97.20;;;;;;1708046;29;20205;-70
2022/06/17 05:25:45;;;;;;;2.80;2.60;;;21.20;97.20;;;;;;1707948;29;20233;-70
2022/06/17 05:26:37;;;;;;;3.53;3.25;;;21.20;97.20;;;;;;1707707;29;20536;-70
2022/06/17 05:27:27;;;;;;;4.63;2.70;;;21.20;97.20;;;;;;1707970;29;20202;-70
2022/06/17 05:28:21;;;;;;;3.07;2.77;;;21.20;97.20;;;;;;1707920;29;20302;-70
2022/06/17 05:29:12;;;;;;;2.72;2.53;;;21.20;97.20;;;;;;1708024;29;20480;-70
2022/06/17 05:30:04;;;;;;;2.93;2.37;;;21.20;97.20;;;;;;1707962;29;20289;-70
2022/06/17 05:30:56;;;;;;;2.67;2.47;;;21.30;97.20;;;;;;1707938;28;20230;-70
2022/06/17 05:31:51;;;;;;;3.30;2.88;;;21.30;97.20;;;;;;1701355;29;20282;-70
2022/06/17 05:32:46;;;;;;;4.22;2.78;;;21.30;97.20;;;;;;1701348;29;20208;-70
2022/06/17 05:33:38;;;;;;;3.10;2.80;;;21.30;97.20;;;;;;1701294;29;20653;-70
2022/06/17 05:34:28;;;;;;;3.33;2.80;;;21.30;97.20;;;;;;1701325;29;20214;-70
2022/06/17 05:35:22;;;;;;;3.30;2.73;;;21.30;97.20;;;;;;1701340;29;20290;-70
2022/06/17 05:36:13;;;;;;;4.07;2.80;;;21.40;97.20;;;;;;1701384;29;20211;-70
2022/06/17 05:37:05;;;;;;;4.90;3.13;;;21.40;97.20;;;;;;1701117;29;20254;-70
2022/06/17 05:37:55;;;;;;;4.68;2.85;;;21.40;97.20;;;;;;1701180;29;20579;-70
2022/06/17 05:38:47;;;;;;;2.80;2.50;;;21.40;97.20;;;;;;1701345;29;20257;-70
2022/06/17 05:39:38;;;;;;;3.47;2.38;;;21.40;97.20;;;;;;1701458;29;20218;-70
2022/06/17 05:40:30;;;;;;;2.57;2.23;;;21.50;97.20;;;;;;1701312;29;20287;-70
2022/06/17 05:41:24;;;;;;;3.20;2.83;;;21.50;97.20;;;;;;1701337;29;20222;-70
2022/06/17 05:42:16;;;;;;;3.08;2.38;;;21.50;97.20;;;;;;1701365;29;20238;-70
2022/06/17 05:43:06;;;;;;;3.00;2.70;;;21.50;97.20;;;;;;1701309;29;20219;-70
2022/06/17 05:43:58;;;;;;;2.87;2.63;;;21.50;97.20;;;;;;1701223;29;20306;-70
2022/06/17 05:44:49;;;;;;;4.60;2.70;;;21.50;97.20;;;;;;1701287;29;20482;-70
2022/06/17 05:45:41;;;;;;;3.63;2.83;;;21.50;97.20;;;;;;1701286;29;20682;-70
2022/06/17 05:46:32;;;;;;;3.72;2.50;;;21.60;97.20;;;;;;1700972;29;20239;-70
2022/06/17 05:47:25;;;;;;;3.87;2.53;;;21.60;97.20;;;;;;1709778;28;20200;-70
2022/06/17 05:48:16;;;;;;;3.55;2.60;;;21.60;97.20;;;;;;1714438;28;20685;-70
2022/06/17 05:49:07;;;;;;;2.90;2.60;;;21.60;97.20;;;;;;1714471;28;20565;-69
2022/06/17 05:49:58;;;;;;;4.10;2.83;;;21.60;97.20;;;;;;1714439;28;20684;-70
2022/06/17 05:50:50;;;;;;;4.23;2.60;;;21.60;97.20;;;;;;1714404;28;20719;-70
2022/06/17 05:51:41;;;;;;;6.95;2.63;;;21.60;97.20;;;;;;1714519;28;20206;-70
2022/06/17 05:52:32;;;;;;;3.60;2.70;;;21.70;97.20;;;;;;1714466;28;20202;-70
2022/06/17 05:53:23;;;;;;;4.53;2.85;;;21.70;97.20;;;;;;1713603;28;20206;-70
2022/06/17 05:54:15;;;;;;;7.97;3.50;;;21.70;97.20;;;;;;1714597;28;20222;-70
2022/06/17 05:55:06;;;;;;;5.90;3.03;;;21.70;97.20;;;;;;1714481;28;20232;-70
2022/06/17 05:55:58;;;;;;;3.67;2.65;;;21.70;97.20;;;;;;1714421;28;20256;-70
2022/06/17 05:56:49;;;;;;;3.92;2.40;;;21.80;97.20;;;;;;1714231;28;20665;-70
2022/06/17 05:57:40;;;;;;;3.30;2.90;;;21.80;97.20;;;;;;1714382;28;20644;-70
2022/06/17 05:58:31;;;;;;;3.90;3.03;;;21.80;97.20;;;;;;1714414;28;20217;-70
2022/06/17 05:59:23;;;;;;;3.53;2.60;;;21.80;97.20;;;;;;1714419;28;20213;-70
2022/06/17 06:00:16;;;;;;;4.72;2.63;;;21.80;97.20;;;;;;1714442;28;20205;-70
2022/06/17 06:01:07;;;;;;;4.55;2.80;;;21.80;97.20;;;;;;1714455;28;20253;-70
2022/06/17 06:01:58;;;;;;;3.00;2.70;;;21.90;97.20;;;;;;1714471;28;20202;-70
2022/06/17 06:02:55;;;;;;;3.20;2.67;;;21.80;97.20;;;;;;1714436;28;20206;-70
2022/06/17 06:03:45;;;;;;;4.57;2.95;;;21.90;97.20;;;;;;1711076;28;20219;-70
2022/06/17 06:04:37;;;;;;;3.33;2.27;;;21.90;97.20;;;;;;1707894;29;20329;-70
2022/06/17 06:05:31;;;;;;;4.72;2.67;;;21.90;97.20;;;;;;1707749;29;20457;-70
2022/06/17 06:06:23;;;;;;;3.58;2.53;;;21.90;97.20;;;;;;1707634;29;20206;-70
2022/06/17 06:07:13;;;;;;;3.50;2.90;;;21.90;97.20;;;;;;1707482;29;20207;-70
2022/06/17 06:08:05;;;;;;;3.17;2.63;;;21.90;97.20;;;;;;1707684;29;20237;-70
2022/06/17 06:08:56;;;;;;;3.28;2.97;;;21.90;97.20;;;;;;1707789;29;20213;-70
2022/06/17 06:09:48;;;;;;;2.60;2.40;;;22.00;97.20;;;;;;1707704;29;20281;-70
2022/06/17 06:10:39;;;;;;;3.00;2.67;;;22.00;97.20;;;;;;1707614;29;20203;-70
2022/06/17 06:11:30;;;;;;;3.33;2.67;;;22.00;97.20;;;;;;1707743;29;20297;-70
2022/06/17 06:12:21;;;;;;;4.65;2.78;;;22.00;97.20;;;;;;1707699;29;20484;-70
2022/06/17 06:13:16;;;;;;;6.43;2.93;;;22.00;97.20;;;;;;1707719;29;20216;-70
2022/06/17 06:14:07;;;;;;;3.75;2.88;;;22.00;97.20;;;;;;1707684;29;20450;-70
2022/06/17 06:14:59;;;;;;;5.33;2.30;;;22.00;97.20;;;;;;1707617;29;20230;-70
2022/06/17 06:15:54;;;;;;;3.63;2.95;;;22.00;97.20;;;;;;1707624;29;20206;-70
2022/06/17 06:16:45;;;;;;;4.55;2.40;;;22.00;97.20;;;;;;1707443;29;20289;-70
2022/06/17 06:17:37;;;;;;;3.73;2.90;;;22.00;97.20;;;;;;1707698;29;20207;-70
2022/06/17 06:18:32;;;;;;;6.82;2.83;;;22.00;97.20;;;;;;1707641;29;20744;-70
2022/06/17 06:19:23;;;;;;;4.15;2.55;;;22.00;97.20;;;;;;1707686;28;20643;-70
2022/06/17 06:20:15;;;;;;;3.28;2.97;;;22.00;97.20;;;;;;1710588;28;20573;-70
2022/06/17 06:21:07;;;;;;;5.40;2.97;;;22.00;97.20;;;;;;1714179;28;20198;-70
2022/06/17 06:21:58;;;;;;;3.83;2.78;;;22.00;97.20;;;;;;1714235;28;20213;-70
2022/06/17 06:22:50;;;;;;;4.77;3.13;;;22.10;97.20;;;;;;1714377;28;20293;-70
2022/06/17 06:23:42;;;;;;;3.03;2.75;;;22.10;97.20;;;;;;1714308;28;20724;-70
2022/06/17 06:24:33;;;;;;;5.30;2.90;;;22.10;97.20;;;;;;1714251;28;20205;-70
2022/06/17 06:25:25;;;;;;;11.40;3.50;;;22.10;97.20;;;;;;1714323;28;20249;-70
2022/06/17 06:26:18;;;;;;;4.70;2.50;;;22.10;97.20;;;;;;1714222;28;20210;-70
2022/06/17 06:27:10;;;;;;;3.10;2.55;;;22.10;97.20;;;;;;1714006;28;20198;-70
2022/06/17 06:28:08;;;;;;;3.67;2.75;;;22.20;97.20;;;;;;1714217;28;20216;-69
2022/06/17 06:29:00;;;;;;;6.50;3.67;;;22.20;97.20;;;;;;1714309;28;20565;-70
2022/06/17 06:29:51;;;;;;;5.45;3.35;;;22.20;97.20;;;;;;1714231;28;20201;-70
2022/06/17 06:30:43;;;;;;;6.23;2.70;;;22.20;97.20;;;;;;1714157;28;20268;-70
2022/06/17 06:31:35;;;;;;;5.30;3.20;;;22.20;97.20;;;;;;1714369;28;20201;-70
2022/06/17 06:32:27;;;;;;;3.03;2.72;;;22.30;97.20;;;;;;1714247;28;20205;-69
2022/06/17 06:33:18;;;;;;;3.88;2.75;;;22.30;97.20;;;;;;1714128;28;20217;-70
2022/06/17 06:34:13;;;;;;;5.27;2.77;;;22.30;97.20;;;;;;1714233;28;20285;-69
2022/06/17 06:35:04;;;;;;;3.47;2.63;;;22.30;97.20;;;;;;1714249;28;20445;-70
2022/06/17 06:35:56;;;;;;;6.88;2.50;;;22.30;97.20;;;;;;1713298;28;20194;-70
2022/06/17 06:36:47;;;;;;;4.13;3.05;;;22.40;97.20;;;;;;1713279;28;20535;-70
2022/06/17 06:37:38;;;;;;;3.17;2.77;;;22.40;97.20;;;;;;1714212;28;20313;-70
2022/06/17 06:38:30;;;;;;;4.35;2.65;;;22.40;97.20;;;;;;1714210;28;20206;-70
2022/06/17 06:39:21;;;;;;;4.47;2.70;;;22.40;97.20;;;;;;1714165;28;20217;-70
2022/06/17 06:40:13;;;;;;;4.90;3.00;;;22.50;97.20;;;;;;1714195;28;20202;-69
2022/06/17 06:41:05;;;;;;;3.10;2.80;;;22.50;97.20;;;;;;1714311;28;20205;-70
2022/06/17 06:41:55;;;;;;;5.22;2.90;;;22.50;97.20;;;;;;1714224;28;20202;-70
2022/06/17 06:42:49;;;;;;;4.10;2.70;;;22.50;97.20;;;;;;1714286;28;20701;-70
2022/06/17 06:43:40;;;;;;;4.55;2.90;;;22.50;97.20;;;;;;1714059;28;20233;-70
2022/06/17 06:44:32;;;;;;;3.03;2.65;;;22.50;97.20;;;;;;1714290;28;20217;-70
2022/06/17 06:45:26;;;;;;;4.50;3.00;;;22.50;97.20;;;;;;1714174;28;20212;-70
2022/06/17 06:46:21;;;;;;;4.25;2.85;;;22.60;97.20;;;;;;1714134;28;20584;-70
2022/06/17 06:47:12;;;;;;;4.00;2.60;;;22.60;97.20;;;;;;1713895;28;20206;-70
2022/06/17 06:48:07;;;;;;;4.35;2.75;;;22.60;97.20;;;;;;1714090;28;20672;-70
2022/06/17 06:48:58;;;;;;;3.03;2.53;;;22.60;97.20;;;;;;1714208;28;20202;-70
2022/06/17 06:49:51;;;;;;;6.27;3.00;;;22.60;97.20;;;;;;1714101;28;20202;-70
2022/06/17 06:50:42;;;;;;;4.32;2.95;;;22.60;97.20;;;;;;1714058;28;20217;-70
2022/06/17 06:51:34;;;;;;;3.23;2.40;;;22.60;97.20;;;;;;1714030;28;20312;-70
2022/06/17 06:52:25;;;;;;;4.10;2.75;;;22.60;97.20;;;;;;1709743;28;20480;-70
2022/06/17 06:53:16;;;;;;;4.80;2.90;;;22.70;97.20;;;;;;1707548;29;20305;-70
2022/06/17 06:54:07;;;;;;;5.00;2.70;;;22.70;97.20;;;;;;1707474;29;20215;-70
2022/06/17 06:54:59;;;;;;;4.70;2.93;;;22.70;97.20;;;;;;1707480;29;20302;-70
2022/06/17 06:55:50;;;;;;;4.30;2.60;;;22.70;97.20;;;;;;1707389;29;20221;-70
2022/06/17 06:56:42;;;;;;;3.58;2.83;;;22.80;97.20;;;;;;1707210;29;20203;-70
2022/06/17 06:57:33;;;;;;;3.13;2.28;;;22.80;97.20;;;;;;1707452;29;20207;-70
2022/06/17 06:58:26;;;;;;;4.37;3.00;;;22.80;97.20;;;;;;1707351;29;20290;-70
2022/06/17 06:59:16;;;;;;;2.70;2.50;;;22.80;97.20;;;;;;1707436;29;20210;-70
2022/06/17 07:00:09;;;;;;;3.30;2.60;;;22.80;97.20;;;;;;1707402;29;20206;-70
2022/06/17 07:01:01;;;;;;;4.05;2.95;;;22.80;97.20;;;;;;1707435;28;20199;-70
2022/06/17 07:01:52;;;;;;;7.88;3.30;;;22.80;97.20;;;;;;1707367;29;20203;-70
2022/06/17 07:02:43;;;;;;;7.77;3.10;;;22.80;97.20;;;;;;1707494;29;20212;-70
2022/06/17 07:03:36;;;;;;;7.63;3.60;;;22.80;97.20;;;;;;1707311;29;20605;-70
2022/06/17 07:04:27;;;;;;;4.53;3.08;;;22.80;97.20;;;;;;1707362;29;20210;-70
2022/06/17 07:05:20;;;;;;;5.13;3.03;;;22.80;97.20;;;;;;1707415;29;20253;-70
2022/06/17 07:06:13;;;;;;;4.65;3.20;;;22.80;97.20;;;;;;1707302;29;20210;-70
2022/06/17 07:07:05;;;;;;;5.47;3.03;;;22.80;97.20;;;;;;1707086;29;20576;-70
2022/06/17 07:07:57;;;;;;;6.43;2.95;;;22.80;97.20;;;;;;1707338;28;20650;-70
2022/06/17 07:08:47;;;;;;;5.28;3.65;;;22.80;97.20;;;;;;1700826;29;20358;-70
2022/06/17 07:09:40;;;;;;;3.70;3.10;;;22.80;97.20;;;;;;1700826;29;20263;-70
2022/06/17 07:10:33;;;;;;;5.82;2.78;;;22.70;97.20;;;;;;1700714;29;20234;-70
2022/06/17 07:11:25;;;;;;;3.83;3.28;;;22.70;97.20;;;;;;1700658;29;20778;-70
2022/06/17 07:12:16;;;;;;;5.68;3.28;;;22.70;97.20;;;;;;1700810;29;20207;-70
2022/06/17 07:13:08;;;;;;;4.83;3.10;;;22.70;97.20;;;;;;1700753;29;20290;-70
2022/06/17 07:13:59;;;;;;;5.00;3.30;;;22.70;97.20;;;;;;1700563;29;20281;-70
2022/06/17 07:14:51;;;;;;;6.33;3.30;;;22.60;97.20;;;;;;1700759;29;20258;-70
2022/06/17 07:15:43;;;;;;;3.92;3.30;;;22.70;97.20;;;;;;1700688;29;20207;-70
2022/06/17 07:16:35;;;;;;;4.00;3.17;;;22.70;97.20;;;;;;1700467;29;20222;-70
2022/06/17 07:17:26;;;;;;;8.45;3.20;;;22.70;97.20;;;;;;1700709;29;20206;-70
2022/06/17 07:18:20;;;;;;;4.63;2.70;;;22.60;97.20;;;;;;1700609;29;20767;-70
2022/06/17 07:19:16;;;;;;;6.38;3.65;;;22.60;97.20;;;;;;1700742;29;20465;-70
2022/06/17 07:20:10;;;;;;;5.53;2.70;;;22.60;97.20;;;;;;1708331;28;20229;-70
2022/06/17 07:21:06;;;;;;;5.25;3.92;;;22.60;97.20;;;;;;1707354;28;20211;-70
2022/06/17 07:21:58;;;;;;;7.50;3.58;;;22.60;97.20;;;;;;1707438;29;20199;-70
2022/06/17 07:22:49;;;;;;;3.83;3.13;;;22.60;97.20;;;;;;1707406;29;20297;-70
2022/06/17 07:23:43;;;;;;;5.93;3.17;;;22.60;97.20;;;;;;1707286;29;20225;-70
2022/06/17 07:24:35;;;;;;;4.55;3.00;;;22.60;97.20;;;;;;1707310;29;20584;-70
2022/06/17 07:25:26;;;;;;;5.63;3.05;;;22.60;97.20;;;;;;1707314;29;20281;-70
2022/06/17 07:26:21;;;;;;;6.25;3.80;;;22.60;97.20;;;;;;1707307;29;20235;-70
2022/06/17 07:27:13;;;;;;;4.47;2.80;;;22.60;97.20;;;;;;1707060;29;20650;-70
2022/06/17 07:28:05;;;;;;;7.00;3.13;;;22.60;97.20;;;;;;1707191;29;20202;-70
2022/06/17 07:28:57;;;;;;;3.88;3.10;;;22.60;97.20;;;;;;1707346;28;20265;-70
2022/06/17 07:29:47;;;;;;;5.40;2.92;;;22.70;97.20;;;;;;1707262;29;20217;-70
2022/06/17 07:30:39;;;;;;;7.00;3.00;;;22.70;97.20;;;;;;1707295;29;20214;-70
2022/06/17 07:31:30;;;;;;;3.75;3.20;;;22.70;97.20;;;;;;1707281;29;20303;-70
2022/06/17 07:32:22;;;;;;;6.30;2.77;;;22.80;97.20;;;;;;1707327;29;20211;-70
2022/06/17 07:33:14;;;;;;;5.80;3.35;;;22.80;97.20;;;;;;1707325;29;20462;-70
2022/06/17 07:34:05;;;;;;;5.43;2.55;;;22.80;97.20;;;;;;1707482;28;20261;-70
2022/06/17 07:34:56;;;;;;;3.50;2.65;;;22.80;97.20;;;;;;1707282;29;20205;-70
2022/06/17 07:35:50;;;;;;;6.63;3.83;;;22.80;97.20;;;;;;1707289;29;20283;-70
2022/06/17 07:40:13;;;;;;;5.13;3.22;;;22.90;97.20;;;;;;1707508;29;20205;-70
2022/06/17 07:41:07;;;;;;;4.70;3.27;;;22.90;97.20;;;;;;1707251;29;20677;-70
2022/06/17 07:41:57;;;;;;;6.22;3.40;;;22.90;97.20;;;;;;1707249;29;20739;-70
2022/06/17 07:42:49;;;;;;;5.30;3.03;;;22.90;97.20;;;;;;1707310;29;20762;-70
2022/06/17 07:43:41;;;;;;;4.30;3.42;;;22.90;97.20;;;;;;1707143;29;20226;-70
2022/06/17 07:44:33;;;;;;;6.47;3.85;;;22.90;97.20;;;;;;1707293;29;20237;-70
2022/06/17 07:45:24;;;;;;;3.28;2.80;;;22.90;97.20;;;;;;1707218;29;20210;-70
2022/06/17 07:46:16;;;;;;;3.88;2.97;;;22.90;97.20;;;;;;1707224;29;20273;-70
2022/06/17 07:47:12;;;;;;;4.43;2.90;;;22.90;97.20;;;;;;1707217;28;20214;-70
2022/06/17 07:48:05;;;;;;;5.22;3.40;;;23.00;97.20;;;;;;1700622;29;20285;-70
2022/06/17 07:48:56;;;;;;;3.45;3.00;;;23.00;97.20;;;;;;1700656;29;20207;-70
2022/06/17 07:49:47;;;;;;;3.63;3.28;;;23.00;97.20;;;;;;1700655;29;20203;-70
2022/06/17 07:50:41;;;;;;;6.20;3.08;;;23.00;97.20;;;;;;1700610;29;20207;-70
2022/06/17 07:51:33;;;;;;;3.30;2.78;;;23.00;97.20;;;;;;1700588;29;20227;-70
2022/06/17 07:52:25;;;;;;;3.70;3.08;;;23.00;97.20;;;;;;1700649;29;20214;-70
2022/06/17 07:53:17;;;;;;;3.67;3.33;;;23.00;97.20;;;;;;1700621;29;20203;-70
2022/06/17 07:54:08;;;;;;;7.30;3.40;;;23.00;97.20;;;;;;1700544;29;20199;-70
2022/06/17 07:54:59;;;;;;;3.67;2.90;;;23.10;97.20;;;;;;1700642;29;20205;-70
2022/06/17 07:55:50;;;;;;;5.63;3.72;;;23.10;97.20;;;;;;1700921;29;20689;-70
2022/06/17 07:56:42;;;;;;;3.67;3.13;;;23.10;97.20;;;;;;1700362;29;20578;-70
2022/06/17 07:57:33;;;;;;;4.72;3.25;;;23.20;97.20;;;;;;1700614;29;20203;-70
2022/06/17 07:58:25;;;;;;;6.90;3.50;;;23.20;97.20;;;;;;1700507;29;20294;-70
2022/06/17 07:59:15;;;;;;;9.70;3.43;;;23.20;97.20;;;;;;1700748;29;20577;-70
2022/06/17 08:00:10;;;;;;;5.23;2.80;;;23.30;97.20;;;;;;1700558;29;20855;-69
2022/06/17 08:01:01;;;;;;;3.78;3.00;;;23.30;97.20;;;;;;1700582;29;20207;-70
2022/06/17 08:01:52;;;;;;;3.77;3.30;;;23.30;97.20;;;;;;1700677;29;20227;-70
2022/06/17 08:02:43;;;;;;;4.90;3.15;;;23.40;97.20;;;;;;1700586;29;20210;-70
2022/06/17 08:03:35;;;;;;;4.17;3.80;;;23.40;97.20;;;;;;1706034;28;20214;-70
2022/06/17 08:04:27;;;;;;;8.07;3.42;;;23.40;97.20;;;;;;1713800;28;20202;-70
2022/06/17 08:05:21;;;;;;;3.40;3.10;;;23.50;97.20;;;;;;1713823;28;20252;-70
2022/06/17 08:06:15;;;;;;;3.53;3.08;;;23.50;97.20;;;;;;1713758;28;20617;-70
2022/06/17 08:07:06;;;;;;;4.30;3.53;;;23.50;97.20;;;;;;1713474;28;20202;-70
2022/06/17 08:08:03;;;;;;;4.60;3.17;;;23.50;97.20;;;;;;1713678;28;20256;-70
2022/06/17 08:08:54;;;;;;;3.90;3.50;;;23.50;97.20;;;;;;1713875;28;20592;-70
2022/06/17 08:09:46;;;;;;;4.53;3.23;;;23.60;97.20;;;;;;1713800;28;20720;-70
2022/06/17 08:10:37;;;;;;;4.93;2.90;;;23.60;97.20;;;;;;1713842;28;20811;-70
2022/06/17 08:11:29;;;;;;;3.20;2.75;;;23.60;97.20;;;;;;1713753;28;20449;-70
2022/06/17 08:12:20;;;;;;;4.05;2.85;;;23.60;97.20;;;;;;1713830;28;20206;-70
2022/06/17 08:13:12;;;;;;;5.00;3.63;;;23.70;97.20;;;;;;1713877;28;20765;-70
2022/06/17 08:14:03;;;;;;;3.88;3.50;;;23.70;97.20;;;;;;1741248;23;20236;-73
2022/06/17 08:14:56;;;;;;;5.07;3.03;;;23.70;97.20;;;;;;1727389;28;20284;-73
2022/06/17 08:15:47;;;;;;;4.13;3.22;;;23.70;97.20;;;;;;1727042;28;20211;-73
2022/06/17 08:16:39;;;;;;;4.82;4.10;;;23.80;97.20;;;;;;1726540;28;20208;-74
2022/06/17 08:17:30;;;;;;;8.20;3.00;;;23.80;97.20;;;;;;1727268;28;20583;-73
2022/06/17 08:18:22;;;;;;;3.50;3.10;;;23.80;97.20;;;;;;1727198;28;20197;-73
2022/06/17 08:19:13;;;;;;;3.58;3.28;;;23.80;97.20;;;;;;1727195;28;20209;-74
2022/06/17 08:20:09;;;;;;;4.53;3.70;;;23.80;97.20;;;;;;1731216;28;20275;-73
2022/06/17 08:21:00;;;;;;;3.80;3.03;;;23.80;97.20;;;;;;1734080;28;20451;-73
2022/06/17 08:21:52;;;;;;;3.80;3.40;;;23.80;97.20;;;;;;1734190;28;20866;-73
2022/06/17 08:22:43;;;;;;;3.88;3.58;;;23.80;97.20;;;;;;1734114;28;20656;-74
2022/06/17 08:23:36;;;;;;;6.15;3.20;;;23.80;97.20;;;;;;1734055;28;20258;-71
2022/06/17 08:24:27;;;;;;;3.57;3.00;;;23.80;97.20;;;;;;1727444;28;20228;-73
2022/06/17 08:25:19;;;;;;;5.23;3.30;;;23.80;97.20;;;;;;1727268;28;20535;-73
2022/06/17 08:26:10;;;;;;;3.60;3.30;;;23.80;97.20;;;;;;1727087;28;20211;-73
2022/06/17 08:27:02;;;;;;;6.50;3.47;;;23.80;97.20;;;;;;1726895;28;20526;-73
2022/06/17 08:27:55;;;;;;;3.40;3.13;;;23.80;97.20;;;;;;1727150;28;20200;-73
2022/06/17 08:28:46;;;;;;;7.93;3.03;;;23.90;97.20;;;;;;1727140;28;20572;-73
2022/06/17 08:29:37;;;;;;;3.65;3.35;;;23.90;97.20;;;;;;1727285;28;20931;-73
2022/06/17 08:30:32;;;;;;;5.50;2.90;;;23.90;97.20;;;;;;1727205;28;20711;-73
2022/06/17 08:31:24;;;;;;;4.30;3.33;;;23.90;97.20;;;;;;1727161;28;20207;-73
2022/06/17 08:33:29;;;;;;;4.20;3.25;;;23.90;97.20;;;;;;1727306;28;20204;-73
2022/06/17 08:34:20;;;;;;;8.02;3.33;;;24.00;97.20;;;;;;1727214;28;20236;-73
2022/06/17 08:35:12;;;;;;;3.70;3.40;;;24.00;97.20;;;;;;1727314;28;20208;-73
2022/06/17 08:36:08;;;;;;;5.88;3.08;;;24.10;97.20;;;;;;1724170;28;20582;-73
2022/06/17 08:37:00;;;;;;;4.20;3.00;;;24.10;97.20;;;;;;1720265;28;20629;-73
2022/06/17 08:37:54;;;;;;;6.67;3.50;;;24.20;97.20;;;;;;1720492;28;20206;-73
2022/06/17 08:38:50;;;;;;;4.30;2.75;;;24.20;97.20;;;;;;1720507;28;20809;-73
2022/06/17 08:39:43;;;;;;;3.80;3.28;;;24.30;97.20;;;;;;1720523;28;20212;-73
2022/06/17 08:40:45;;;;;;;3.50;2.80;;;24.30;97.20;;;;;;1720458;28;20631;-73
2022/06/17 08:41:47;;;;;;;3.43;3.13;;;24.40;97.20;;;;;;1720430;28;20209;-73
2022/06/17 08:42:54;;;;;;;2.95;2.60;;;24.40;97.20;;;;;;1720485;28;20437;-73
2022/06/17 08:44:09;;;;;;;6.20;3.70;;;24.50;97.20;;;;;;1720311;28;20206;-73
2022/06/17 08:45:06;;;;;;;6.13;3.60;;;24.50;97.20;;;;;;1720469;28;20459;-73
2022/06/17 08:46:12;;;;;;;3.47;3.15;;;24.50;97.20;;;;;;1724975;28;20672;-73
2022/06/17 08:47:30;;;;;;;9.50;6.88;;;24.60;97.20;;;;;;1726944;28;20258;-73
2022/06/17 08:48:34;;;;;;;10.30;8.47;;;24.60;97.20;;;;;;1727087;28;20638;-73
2022/06/17 08:49:52;;;;;;;5.20;4.50;;;24.60;97.20;;;;;;1727223;28;20940;-73
2022/06/17 08:51:00;;;;;;;6.78;3.80;;;24.60;97.20;;;;;;1728466;28;20435;-73
2022/06/17 08:52:12;;;;;;;5.27;3.50;;;24.70;97.20;;;;;;1728053;28;20467;-73
2022/06/17 08:53:34;;;;;;;3.67;2.77;;;24.70;97.20;;;;;;1714964;28;20937;-73
2022/06/17 08:54:44;;;;;;;5.17;3.30;;;24.80;97.20;;;;;;1714657;28;20484;-73
2022/06/17 08:55:42;;;;;;;5.40;4.80;;;24.80;97.20;;;;;;1715020;28;20929;-73
2022/06/17 08:56:39;;;;;;;4.30;3.90;;;24.80;97.20;;;;;;1714626;28;20934;-72
2022/06/17 08:57:41;;;;;;;6.07;3.50;;;24.90;97.20;;;;;;1714956;28;20445;-73
2022/06/17 08:58:43;;;;;;;5.13;3.53;;;24.90;97.20;;;;;;1714862;28;20202;-73
2022/06/17 08:59:52;;;;;;;10.97;3.70;;;24.90;97.20;;;;;;1714858;28;20441;-73
2022/06/17 09:00:52;;;;;;;5.45;3.78;;;25.00;97.20;;;;;;1714870;28;20446;-73
2022/06/17 09:01:53;;;;;;;3.80;3.15;;;25.00;97.20;;;;;;1714906;28;20210;-73
2022/06/17 09:03:01;;;;;;;3.20;2.70;;;25.00;97.20;;;;;;1714888;28;20202;-73
2022/06/17 09:04:18;;;;;;;3.60;2.58;;;25.10;97.20;;;;;;1714812;28;20940;-73
2022/06/17 09:05:22;;;;;;;2.50;2.30;;;25.20;97.20;;;;;;1714842;28;20224;-73
2022/06/17 09:06:31;;;;;;;4.70;2.93;;;25.20;97.20;;;;;;1714893;28;20875;-73
2022/06/17 09:07:30;;;;;;;3.87;3.47;;;25.20;97.20;;;;;;1714716;28;20437;-73
2022/06/17 09:08:40;;;;;;;5.63;3.87;;;25.20;97.20;;;;;;1717751;28;20441;-73
2022/06/17 09:09:46;;;;;;;7.40;6.80;;;25.30;97.20;;;;;;1728379;28;20442;-73
2022/06/17 09:10:47;;;;;;;5.80;4.40;;;25.30;97.20;;;;;;1728324;28;20205;-73
2022/06/17 09:11:41;;;;;;;4.63;3.80;;;25.30;97.20;;;;;;1728462;28;20450;-73
2022/06/17 09:12:44;;;;;;;4.05;3.75;;;25.40;97.20;;;;;;1728177;28;20929;-73
2022/06/17 09:13:57;;;;;;;5.93;3.77;;;25.40;97.20;;;;;;1728269;28;20668;-73
2022/06/17 09:14:55;;;;;;;4.13;3.00;;;25.40;97.20;;;;;;1728237;28;20446;-73
2022/06/17 09:15:55;;;;;;;8.47;3.10;;;25.50;97.20;;;;;;1728172;28;20467;-73
2022/06/17 09:16:57;;;;;;;5.50;3.03;;;25.50;97.20;;;;;;1727992;28;20446;-73
2022/06/17 09:17:59;;;;;;;3.20;2.50;;;25.50;97.20;;;;;;1728055;28;20440;-73
2022/06/17 09:18:56;;;;;;;3.50;2.30;;;25.60;97.20;;;;;;1728230;28;20443;-72
2022/06/17 09:19:52;;;;;;;3.40;2.20;;;25.60;97.20;;;;;;1728254;28;20446;-73
2022/06/17 09:20:45;;;;;;;4.47;2.60;;;25.60;97.20;;;;;;1728242;28;20446;-73
2022/06/17 09:21:45;;;;;;;4.03;2.83;;;25.70;97.20;;;;;;1728164;28;20530;-73
2022/06/17 09:22:40;;;;;;;3.67;2.83;;;25.70;97.20;;;;;;1728265;28;20435;-73
2022/06/17 09:23:36;;;;;;;3.23;2.60;;;25.70;97.20;;;;;;1728271;28;20459;-73
2022/06/17 09:24:31;;;;;;;3.73;2.60;;;25.80;97.20;;;;;;1728153;28;20463;-73
2022/06/17 09:25:29;;;;;;;3.45;3.05;;;25.80;97.20;;;;;;1726837;28;20443;-73
2022/06/17 09:26:26;;;;;;;4.00;2.85;;;25.80;97.20;;;;;;1728126;28;20581;-73
2022/06/17 09:27:23;;;;;;;5.03;2.53;;;25.80;97.20;;;;;;1727959;28;20204;-73
2022/06/17 09:28:21;;;;;;;3.70;2.50;;;25.80;97.20;;;;;;1728067;28;20208;-73
2022/06/17 09:29:21;;;;;;;3.80;3.07;;;25.90;97.20;;;;;;1728135;28;20852;-73
2022/06/17 09:30:15;;;;;;;9.60;3.10;;;25.90;97.20;;;;;;1728164;28;20451;-73
2022/06/17 09:31:12;;;;;;;3.13;2.83;;;25.90;97.20;;;;;;1728196;28;20427;-73
2022/06/17 09:32:08;;;;;;;4.73;2.80;;;25.90;97.20;;;;;;1728083;28;20439;-73
2022/06/17 09:33:08;;;;;;;5.73;3.50;;;25.90;97.20;;;;;;1728152;28;20448;-73
2022/06/17 09:34:07;;;;;;;2.90;2.63;;;25.90;97.20;;;;;;1728074;28;20443;-73
2022/06/17 09:35:04;;;;;;;4.60;3.23;;;25.80;97.20;;;;;;1728274;28;20470;-73
2022/06/17 09:36:03;;;;;;;4.00;2.80;;;25.90;97.20;;;;;;1728077;28;20954;-73
2022/06/17 09:37:01;;;;;;;4.90;2.67;;;25.90;97.20;;;;;;1727831;28;20843;-73
2022/06/17 09:37:57;;;;;;;3.90;2.80;;;25.90;97.20;;;;;;1728004;28;20440;-73
2022/06/17 09:38:52;;;;;;;3.27;3.00;;;25.90;97.20;;;;;;1728062;28;20446;-73
2022/06/17 09:39:51;;;;;;;13.97;10.70;;;25.90;97.20;;;;;;1728021;28;20443;-73
2022/06/17 09:40:51;;;;;;;9.50;5.47;;;26.00;97.20;;;;;;1728084;28;20452;-73
2022/06/17 09:41:47;;;;;;;4.33;3.90;;;26.00;97.20;;;;;;1726487;28;20447;-73
2022/06/17 09:42:42;;;;;;;4.47;3.57;;;26.10;97.20;;;;;;1728004;28;20444;-73
2022/06/17 09:43:40;;;;;;;3.60;3.30;;;26.10;97.20;;;;;;1727956;28;20896;-73
2022/06/17 09:44:36;;;;;;;10.70;3.30;;;26.10;97.20;;;;;;1728207;28;20450;-73
2022/06/17 09:45:36;;;;;;;4.73;4.30;;;26.10;97.20;;;;;;1728019;28;20489;-73
2022/06/17 09:46:33;;;;;;;4.03;3.43;;;26.20;97.20;;;;;;1728082;28;20440;-73